PBL weather

General Bartolome Salom International Airport
Carabobo, Venezuela

Public forecast

Using degrees Celsius for public forecast. Weather courtesy of forecast.io.

METAR (pilot weather report)

Report is more than 6 hours old.

Retrieved 2019/09/03 13:00 UTC (19 days ago):

SVPC 031300Z 04010KT 8000 HZ SCT015 Q1010

TAF (pilot weather forecast)

Forecast is more than 12 hours old.

Closest forecast is Arturo Michelena International Airport, 21.6 nm (40.0 km) SSE. Retrieved 2019/09/21 00:16 UTC (1 day ago):

TAF SVVA 212230Z 2200/2300 25004KT 9999 SCT016 SCT070 TX29/2219Z TN22/2308Z TEMPO 2203/2206 28005KT 9999 SCT020 SCT070 2209/2212 09002KT 9999 SCT016/